sensor_id;sensor_type;location;lat;lon;timestamp;temperature;humidity
30534;DHT22;73248;52.398;9.814;2024-03-29T00:01:44;9.30;99.60
30534;DHT22;73248;52.398;9.814;2024-03-29T00:04:09;9.30;99.50
30534;DHT22;73248;52.398;9.814;2024-03-29T00:06:35;9.30;99.30
30534;DHT22;73248;52.398;9.814;2024-03-29T00:09:01;9.30;99.30
30534;DHT22;73248;52.398;9.814;2024-03-29T00:11:27;9.40;99.30
30534;DHT22;73248;52.398;9.814;2024-03-29T00:13:53;9.30;99.30
30534;DHT22;73248;52.398;9.814;2024-03-29T00:16:18;9.30;99.40
30534;DHT22;73248;52.398;9.814;2024-03-29T00:18:44;9.30;99.30
30534;DHT22;73248;52.398;9.814;2024-03-29T00:21:10;9.30;99.40
30534;DHT22;73248;52.398;9.814;2024-03-29T00:23:35;9.30;99.40
30534;DHT22;73248;52.398;9.814;2024-03-29T00:26:01;9.30;99.50
30534;DHT22;73248;52.398;9.814;2024-03-29T00:28:26;9.20;99.50
30534;DHT22;73248;52.398;9.814;2024-03-29T00:30:52;9.20;99.50
30534;DHT22;73248;52.398;9.814;2024-03-29T00:33:18;9.20;99.50
30534;DHT22;73248;52.398;9.814;2024-03-29T00:35:43;9.20;99.50
30534;DHT22;73248;52.398;9.814;2024-03-29T00:38:09;9.20;99.50
30534;DHT22;73248;52.398;9.814;2024-03-29T00:40:35;9.20;99.50
30534;DHT22;73248;52.398;9.814;2024-03-29T00:43:01;9.20;99.70
30534;DHT22;73248;52.398;9.814;2024-03-29T00:45:27;9.20;99.50
30534;DHT22;73248;52.398;9.814;2024-03-29T00:47:54;9.10;99.50
30534;DHT22;73248;52.398;9.814;2024-03-29T00:50:19;9.10;99.50
30534;DHT22;73248;52.398;9.814;2024-03-29T00:52:45;9.10;99.40
30534;DHT22;73248;52.398;9.814;2024-03-29T00:55:13;9.10;99.50
30534;DHT22;73248;52.398;9.814;2024-03-29T00:57:39;9.10;99.50
30534;DHT22;73248;52.398;9.814;2024-03-29T01:00:05;9.10;99.50
30534;DHT22;73248;52.398;9.814;2024-03-29T01:02:31;9.10;99.50
30534;DHT22;73248;52.398;9.814;2024-03-29T01:04:56;9.10;99.80
30534;DHT22;73248;52.398;9.814;2024-03-29T01:07:22;9.10;99.50
30534;DHT22;73248;52.398;9.814;2024-03-29T01:09:48;9.10;99.50
30534;DHT22;73248;52.398;9.814;2024-03-29T01:12:14;9.10;99.50
30534;DHT22;73248;52.398;9.814;2024-03-29T01:14:39;9.10;99.50
30534;DHT22;73248;52.398;9.814;2024-03-29T01:17:05;9.10;99.50
30534;DHT22;73248;52.398;9.814;2024-03-29T01:19:32;9.10;99.50
30534;DHT22;73248;52.398;9.814;2024-03-29T01:21:57;9.10;99.50
30534;DHT22;73248;52.398;9.814;2024-03-29T01:24:23;9.10;99.50
30534;DHT22;73248;52.398;9.814;2024-03-29T01:26:49;9.00;99.50
30534;DHT22;73248;52.398;9.814;2024-03-29T01:29:15;9.10;99.50
30534;DHT22;73248;52.398;9.814;2024-03-29T01:31:41;9.10;99.50
30534;DHT22;73248;52.398;9.814;2024-03-29T01:34:06;9.00;99.50
30534;DHT22;73248;52.398;9.814;2024-03-29T01:36:32;9.00;99.50
30534;DHT22;73248;52.398;9.814;2024-03-29T01:38:58;9.00;99.50
30534;DHT22;73248;52.398;9.814;2024-03-29T01:41:26;9.00;99.50
30534;DHT22;73248;52.398;9.814;2024-03-29T01:43:53;9.00;99.50
30534;DHT22;73248;52.398;9.814;2024-03-29T01:46:23;9.00;99.50
30534;DHT22;73248;52.398;9.814;2024-03-29T01:48:53;9.00;99.40
30534;DHT22;73248;52.398;9.814;2024-03-29T01:51:21;9.00;99.40
30534;DHT22;73248;52.398;9.814;2024-03-29T01:53:51;9.00;99.40
30534;DHT22;73248;52.398;9.814;2024-03-29T01:56:20;9.00;99.40
30534;DHT22;73248;52.398;9.814;2024-03-29T01:58:47;9.00;99.40
30534;DHT22;73248;52.398;9.814;2024-03-29T02:01:14;9.00;99.30
30534;DHT22;73248;52.398;9.814;2024-03-29T02:03:41;9.00;99.30
30534;DHT22;73248;52.398;9.814;2024-03-29T02:06:06;9.00;99.20
30534;DHT22;73248;52.398;9.814;2024-03-29T02:08:33;9.00;99.20
30534;DHT22;73248;52.398;9.814;2024-03-29T02:10:59;9.00;99.20
30534;DHT22;73248;52.398;9.814;2024-03-29T02:13:25;9.00;99.20
30534;DHT22;73248;52.398;9.814;2024-03-29T02:15:50;8.90;99.10
30534;DHT22;73248;52.398;9.814;2024-03-29T02:18:16;8.90;99.20
30534;DHT22;73248;52.398;9.814;2024-03-29T02:20:41;8.90;99.20
30534;DHT22;73248;52.398;9.814;2024-03-29T02:23:11;8.90;99.20
30534;DHT22;73248;52.398;9.814;2024-03-29T02:25:37;8.90;99.20
30534;DHT22;73248;52.398;9.814;2024-03-29T02:28:03;8.90;99.30
30534;DHT22;73248;52.398;9.814;2024-03-29T02:30:30;8.90;99.30
30534;DHT22;73248;52.398;9.814;2024-03-29T02:32:59;8.90;99.30
30534;DHT22;73248;52.398;9.814;2024-03-29T02:35:25;8.90;99.40
30534;DHT22;73248;52.398;9.814;2024-03-29T02:37:51;8.80;99.40
30534;DHT22;73248;52.398;9.814;2024-03-29T02:40:18;8.80;99.30
30534;DHT22;73248;52.398;9.814;2024-03-29T02:42:43;8.80;99.40
30534;DHT22;73248;52.398;9.814;2024-03-29T02:45:09;8.80;99.40
30534;DHT22;73248;52.398;9.814;2024-03-29T02:47:35;8.80;99.40
30534;DHT22;73248;52.398;9.814;2024-03-29T02:50:00;8.80;99.40
30534;DHT22;73248;52.398;9.814;2024-03-29T02:52:26;8.80;99.40
30534;DHT22;73248;52.398;9.814;2024-03-29T02:54:52;8.80;99.40
30534;DHT22;73248;52.398;9.814;2024-03-29T02:57:17;8.80;99.50
30534;DHT22;73248;52.398;9.814;2024-03-29T02:59:43;8.70;99.50
30534;DHT22;73248;52.398;9.814;2024-03-29T03:02:09;8.70;99.60
30534;DHT22;73248;52.398;9.814;2024-03-29T03:04:34;8.70;99.60
30534;DHT22;73248;52.398;9.814;2024-03-29T03:07:00;8.70;99.60
30534;DHT22;73248;52.398;9.814;2024-03-29T03:09:44;8.70;99.60
30534;DHT22;73248;52.398;9.814;2024-03-29T03:12:29;8.70;99.70
30534;DHT22;73248;52.398;9.814;2024-03-29T03:14:56;8.70;99.70
30534;DHT22;73248;52.398;9.814;2024-03-29T03:17:21;8.70;99.70
30534;DHT22;73248;52.398;9.814;2024-03-29T03:19:47;8.70;99.70
30534;DHT22;73248;52.398;9.814;2024-03-29T03:22:13;8.60;99.70
30534;DHT22;73248;52.398;9.814;2024-03-29T03:24:38;8.70;99.70
30534;DHT22;73248;52.398;9.814;2024-03-29T03:27:04;8.60;99.70
30534;DHT22;73248;52.398;9.814;2024-03-29T03:29:29;8.70;99.70
30534;DHT22;73248;52.398;9.814;2024-03-29T03:31:55;8.70;99.60
30534;DHT22;73248;52.398;9.814;2024-03-29T03:34:20;8.70;99.60
30534;DHT22;73248;52.398;9.814;2024-03-29T03:36:46;8.70;99.60
30534;DHT22;73248;52.398;9.814;2024-03-29T03:39:12;8.70;99.60
30534;DHT22;73248;52.398;9.814;2024-03-29T03:41:37;8.70;99.80
30534;DHT22;73248;52.398;9.814;2024-03-29T03:44:03;8.70;99.50
30534;DHT22;73248;52.398;9.814;2024-03-29T03:46:28;8.70;99.70
30534;DHT22;73248;52.398;9.814;2024-03-29T03:48:54;8.70;99.70
30534;DHT22;73248;52.398;9.814;2024-03-29T03:51:19;8.70;99.80
30534;DHT22;73248;52.398;9.814;2024-03-29T03:53:45;8.70;99.80
30534;DHT22;73248;52.398;9.814;2024-03-29T03:56:10;8.70;99.90
30534;DHT22;73248;52.398;9.814;2024-03-29T03:58:36;8.70;99.90
30534;DHT22;73248;52.398;9.814;2024-03-29T04:01:05;8.70;99.90
30534;DHT22;73248;52.398;9.814;2024-03-29T04:03:30;8.70;99.90
30534;DHT22;73248;52.398;9.814;2024-03-29T04:05:56;8.70;99.80
30534;DHT22;73248;52.398;9.814;2024-03-29T04:08:22;8.70;99.80
30534;DHT22;73248;52.398;9.814;2024-03-29T04:10:48;8.70;99.80
30534;DHT22;73248;52.398;9.814;2024-03-29T04:13:13;8.70;99.80
30534;DHT22;73248;52.398;9.814;2024-03-29T04:15:39;8.70;99.90
30534;DHT22;73248;52.398;9.814;2024-03-29T04:18:06;8.70;99.80
30534;DHT22;73248;52.398;9.814;2024-03-29T04:20:32;8.80;99.70
30534;DHT22;73248;52.398;9.814;2024-03-29T04:22:57;8.80;99.70
30534;DHT22;73248;52.398;9.814;2024-03-29T04:25:23;8.80;99.60
30534;DHT22;73248;52.398;9.814;2024-03-29T04:27:48;8.80;99.60
30534;DHT22;73248;52.398;9.814;2024-03-29T04:30:14;8.80;99.50
30534;DHT22;73248;52.398;9.814;2024-03-29T04:32:40;8.90;99.60
30534;DHT22;73248;52.398;9.814;2024-03-29T04:35:05;8.90;99.50
30534;DHT22;73248;52.398;9.814;2024-03-29T04:37:31;8.90;99.40
30534;DHT22;73248;52.398;9.814;2024-03-29T04:39:57;8.90;99.50
30534;DHT22;73248;52.398;9.814;2024-03-29T04:42:22;9.00;99.30
30534;DHT22;73248;52.398;9.814;2024-03-29T04:44:48;9.00;99.30
30534;DHT22;73248;52.398;9.814;2024-03-29T04:47:13;9.10;99.20
30534;DHT22;73248;52.398;9.814;2024-03-29T04:49:39;9.00;99.20
30534;DHT22;73248;52.398;9.814;2024-03-29T04:52:06;9.10;99.20
30534;DHT22;73248;52.398;9.814;2024-03-29T04:54:32;9.10;99.10
30534;DHT22;73248;52.398;9.814;2024-03-29T04:56:59;9.10;99.10
30534;DHT22;73248;52.398;9.814;2024-03-29T04:59:27;9.10;99.00
30534;DHT22;73248;52.398;9.814;2024-03-29T05:01:53;9.20;99.00
30534;DHT22;73248;52.398;9.814;2024-03-29T05:04:20;9.20;98.90
30534;DHT22;73248;52.398;9.814;2024-03-29T05:06:55;9.20;98.90
30534;DHT22;73248;52.398;9.814;2024-03-29T05:09:21;9.20;98.80
30534;DHT22;73248;52.398;9.814;2024-03-29T05:11:47;9.20;98.80
30534;DHT22;73248;52.398;9.814;2024-03-29T05:14:19;9.20;98.60
30534;DHT22;73248;52.398;9.814;2024-03-29T05:16:46;9.30;98.70
30534;DHT22;73248;52.398;9.814;2024-03-29T05:19:13;9.30;98.60
30534;DHT22;73248;52.398;9.814;2024-03-29T05:21:39;9.30;98.60
30534;DHT22;73248;52.398;9.814;2024-03-29T05:24:05;9.30;98.70
30534;DHT22;73248;52.398;9.814;2024-03-29T05:26:31;9.30;98.60
30534;DHT22;73248;52.398;9.814;2024-03-29T05:28:57;9.30;98.60
30534;DHT22;73248;52.398;9.814;2024-03-29T05:31:26;9.40;98.80
30534;DHT22;73248;52.398;9.814;2024-03-29T05:33:52;9.40;98.90
30534;DHT22;73248;52.398;9.814;2024-03-29T05:36:17;9.30;99.00
30534;DHT22;73248;52.398;9.814;2024-03-29T05:38:44;9.30;99.00
30534;DHT22;73248;52.398;9.814;2024-03-29T05:41:10;9.40;99.00
30534;DHT22;73248;52.398;9.814;2024-03-29T05:43:35;9.40;99.10
30534;DHT22;73248;52.398;9.814;2024-03-29T05:46:02;9.40;99.30
30534;DHT22;73248;52.398;9.814;2024-03-29T05:48:28;9.40;99.20
30534;DHT22;73248;52.398;9.814;2024-03-29T05:50:54;9.50;99.40
30534;DHT22;73248;52.398;9.814;2024-03-29T05:53:20;9.50;99.60
30534;DHT22;73248;52.398;9.814;2024-03-29T05:55:45;9.40;99.60
30534;DHT22;73248;52.398;9.814;2024-03-29T05:58:11;9.50;99.80
30534;DHT22;73248;52.398;9.814;2024-03-29T06:00:41;9.50;99.90
30534;DHT22;73248;52.398;9.814;2024-03-29T06:03:07;9.50;99.90
30534;DHT22;73248;52.398;9.814;2024-03-29T06:05:33;9.50;99.90
30534;DHT22;73248;52.398;9.814;2024-03-29T06:07:58;9.50;99.90
30534;DHT22;73248;52.398;9.814;2024-03-29T06:10:24;9.60;99.90
30534;DHT22;73248;52.398;9.814;2024-03-29T06:12:49;9.50;99.90
30534;DHT22;73248;52.398;9.814;2024-03-29T06:15:15;9.50;99.90
30534;DHT22;73248;52.398;9.814;2024-03-29T06:17:59;9.50;99.90
30534;DHT22;73248;52.398;9.814;2024-03-29T06:20:25;9.50;99.90
30534;DHT22;73248;52.398;9.814;2024-03-29T06:22:51;9.50;99.90
30534;DHT22;73248;52.398;9.814;2024-03-29T06:25:16;9.50;99.90
30534;DHT22;73248;52.398;9.814;2024-03-29T06:27:42;9.60;99.90
30534;DHT22;73248;52.398;9.814;2024-03-29T06:30:12;9.50;99.90
30534;DHT22;73248;52.398;9.814;2024-03-29T06:32:38;9.50;99.90
30534;DHT22;73248;52.398;9.814;2024-03-29T06:35:04;9.50;99.90
30534;DHT22;73248;52.398;9.814;2024-03-29T06:37:30;9.50;99.90
30534;DHT22;73248;52.398;9.814;2024-03-29T06:39:56;9.50;99.90
30534;DHT22;73248;52.398;9.814;2024-03-29T06:42:22;9.50;99.90
30534;DHT22;73248;52.398;9.814;2024-03-29T06:44:47;9.40;99.90
30534;DHT22;73248;52.398;9.814;2024-03-29T06:47:13;9.40;99.90
30534;DHT22;73248;52.398;9.814;2024-03-29T06:49:39;9.40;99.90
30534;DHT22;73248;52.398;9.814;2024-03-29T06:52:04;9.40;99.90
30534;DHT22;73248;52.398;9.814;2024-03-29T06:54:30;9.50;99.90
30534;DHT22;73248;52.398;9.814;2024-03-29T06:56:58;9.40;99.90
30534;DHT22;73248;52.398;9.814;2024-03-29T06:59:24;9.40;99.90
30534;DHT22;73248;52.398;9.814;2024-03-29T07:01:50;9.40;99.90
30534;DHT22;73248;52.398;9.814;2024-03-29T07:04:19;9.30;99.90
30534;DHT22;73248;52.398;9.814;2024-03-29T07:06:45;9.30;99.90
30534;DHT22;73248;52.398;9.814;2024-03-29T07:09:14;9.30;99.90
30534;DHT22;73248;52.398;9.814;2024-03-29T07:11:40;9.40;99.90
30534;DHT22;73248;52.398;9.814;2024-03-29T07:14:05;9.30;99.90
30534;DHT22;73248;52.398;9.814;2024-03-29T07:16:31;9.30;99.90
30534;DHT22;73248;52.398;9.814;2024-03-29T07:18:57;9.30;99.90
30534;DHT22;73248;52.398;9.814;2024-03-29T07:21:23;9.30;99.90
30534;DHT22;73248;52.398;9.814;2024-03-29T07:23:49;9.30;99.90
30534;DHT22;73248;52.398;9.814;2024-03-29T07:26:15;9.30;99.90
30534;DHT22;73248;52.398;9.814;2024-03-29T07:28:40;9.30;99.90
30534;DHT22;73248;52.398;9.814;2024-03-29T07:31:07;9.30;99.90
30534;DHT22;73248;52.398;9.814;2024-03-29T07:33:33;9.30;99.90
30534;DHT22;73248;52.398;9.814;2024-03-29T07:35:59;9.20;99.90
30534;DHT22;73248;52.398;9.814;2024-03-29T07:38:24;9.20;99.90
30534;DHT22;73248;52.398;9.814;2024-03-29T07:40:51;9.30;99.90
30534;DHT22;73248;52.398;9.814;2024-03-29T07:43:18;9.20;99.90
30534;DHT22;73248;52.398;9.814;2024-03-29T07:45:44;9.20;99.90
30534;DHT22;73248;52.398;9.814;2024-03-29T07:48:15;9.20;99.90
30534;DHT22;73248;52.398;9.814;2024-03-29T07:50:42;9.20;99.90
30534;DHT22;73248;52.398;9.814;2024-03-29T07:53:08;9.20;99.90
30534;DHT22;73248;52.398;9.814;2024-03-29T07:55:35;9.20;99.90
30534;DHT22;73248;52.398;9.814;2024-03-29T07:58:01;9.20;99.90
30534;DHT22;73248;52.398;9.814;2024-03-29T08:00:27;9.30;99.90
30534;DHT22;73248;52.398;9.814;2024-03-29T08:02:52;9.30;99.90
30534;DHT22;73248;52.398;9.814;2024-03-29T08:05:20;9.40;99.90
30534;DHT22;73248;52.398;9.814;2024-03-29T08:07:46;9.40;99.90
30534;DHT22;73248;52.398;9.814;2024-03-29T08:10:11;9.50;99.90
30534;DHT22;73248;52.398;9.814;2024-03-29T08:12:37;9.40;99.90
30534;DHT22;73248;52.398;9.814;2024-03-29T08:15:03;9.50;99.90
30534;DHT22;73248;52.398;9.814;2024-03-29T08:17:29;9.50;99.90
30534;DHT22;73248;52.398;9.814;2024-03-29T08:19:55;9.50;99.90
30534;DHT22;73248;52.398;9.814;2024-03-29T08:22:21;9.50;99.90
30534;DHT22;73248;52.398;9.814;2024-03-29T08:24:46;9.60;99.90
30534;DHT22;73248;52.398;9.814;2024-03-29T08:27:12;9.70;99.90
30534;DHT22;73248;52.398;9.814;2024-03-29T08:29:38;9.70;99.90
30534;DHT22;73248;52.398;9.814;2024-03-29T08:32:04;9.80;99.90
30534;DHT22;73248;52.398;9.814;2024-03-29T08:34:31;9.80;99.90
30534;DHT22;73248;52.398;9.814;2024-03-29T08:37:01;9.90;99.90
30534;DHT22;73248;52.398;9.814;2024-03-29T08:39:28;10.00;99.90
30534;DHT22;73248;52.398;9.814;2024-03-29T08:41:54;10.00;99.90
30534;DHT22;73248;52.398;9.814;2024-03-29T08:44:20;10.10;99.90
30534;DHT22;73248;52.398;9.814;2024-03-29T08:46:45;10.10;99.90
30534;DHT22;73248;52.398;9.814;2024-03-29T08:49:11;10.20;99.90
30534;DHT22;73248;52.398;9.814;2024-03-29T08:51:36;10.30;99.90
30534;DHT22;73248;52.398;9.814;2024-03-29T08:54:02;10.40;99.90
30534;DHT22;73248;52.398;9.814;2024-03-29T08:56:33;10.50;99.90
30534;DHT22;73248;52.398;9.814;2024-03-29T08:59:03;10.50;99.90
30534;DHT22;73248;52.398;9.814;2024-03-29T09:01:33;10.60;99.90
30534;DHT22;73248;52.398;9.814;2024-03-29T09:03:59;10.60;99.90
30534;DHT22;73248;52.398;9.814;2024-03-29T09:06:24;10.60;99.90
30534;DHT22;73248;52.398;9.814;2024-03-29T09:08:50;10.60;99.90
30534;DHT22;73248;52.398;9.814;2024-03-29T09:11:15;10.60;99.90
30534;DHT22;73248;52.398;9.814;2024-03-29T09:13:41;10.70;99.90
30534;DHT22;73248;52.398;9.814;2024-03-29T09:16:06;10.70;99.90
30534;DHT22;73248;52.398;9.814;2024-03-29T09:18:32;10.70;99.90
30534;DHT22;73248;52.398;9.814;2024-03-29T09:20:58;10.70;99.90
30534;DHT22;73248;52.398;9.814;2024-03-29T09:23:26;10.70;99.90
30534;DHT22;73248;52.398;9.814;2024-03-29T09:25:53;10.80;99.90
30534;DHT22;73248;52.398;9.814;2024-03-29T09:28:19;10.80;99.90
30534;DHT22;73248;52.398;9.814;2024-03-29T09:30:46;10.80;99.90
30534;DHT22;73248;52.398;9.814;2024-03-29T09:33:12;10.90;99.90
30534;DHT22;73248;52.398;9.814;2024-03-29T09:35:38;11.00;99.90
30534;DHT22;73248;52.398;9.814;2024-03-29T09:38:03;11.00;99.90
30534;DHT22;73248;52.398;9.814;2024-03-29T09:40:29;11.10;99.90
30534;DHT22;73248;52.398;9.814;2024-03-29T09:43:00;11.20;99.90
30534;DHT22;73248;52.398;9.814;2024-03-29T09:45:37;11.40;99.90
30534;DHT22;73248;52.398;9.814;2024-03-29T09:48:03;11.50;99.90
30534;DHT22;73248;52.398;9.814;2024-03-29T09:50:34;11.70;99.90
30534;DHT22;73248;52.398;9.814;2024-03-29T09:53:06;11.70;99.90
30534;DHT22;73248;52.398;9.814;2024-03-29T09:55:33;11.80;99.90
30534;DHT22;73248;52.398;9.814;2024-03-29T09:58:01;12.00;99.90
30534;DHT22;73248;52.398;9.814;2024-03-29T10:00:28;12.10;99.90
30534;DHT22;73248;52.398;9.814;2024-03-29T10:02:56;12.10;99.90
30534;DHT22;73248;52.398;9.814;2024-03-29T10:05:25;12.10;99.90
30534;DHT22;73248;52.398;9.814;2024-03-29T10:07:52;12.20;99.90
30534;DHT22;73248;52.398;9.814;2024-03-29T10:10:18;12.20;99.90
30534;DHT22;73248;52.398;9.814;2024-03-29T10:12:43;12.20;99.90
30534;DHT22;73248;52.398;9.814;2024-03-29T10:15:09;12.20;99.90
30534;DHT22;73248;52.398;9.814;2024-03-29T10:17:39;12.30;99.90
30534;DHT22;73248;52.398;9.814;2024-03-29T10:20:05;12.40;99.90
30534;DHT22;73248;52.398;9.814;2024-03-29T10:22:41;12.40;99.90
30534;DHT22;73248;52.398;9.814;2024-03-29T10:25:07;12.50;99.90
30534;DHT22;73248;52.398;9.814;2024-03-29T10:27:32;12.60;99.90
30534;DHT22;73248;52.398;9.814;2024-03-29T10:29:59;12.70;99.90
30534;DHT22;73248;52.398;9.814;2024-03-29T10:32:24;12.80;99.90
30534;DHT22;73248;52.398;9.814;2024-03-29T10:34:51;12.90;99.90
30534;DHT22;73248;52.398;9.814;2024-03-29T10:37:17;13.00;99.90
30534;DHT22;73248;52.398;9.814;2024-03-29T10:39:50;12.90;99.90
30534;DHT22;73248;52.398;9.814;2024-03-29T10:42:16;13.00;99.90
30534;DHT22;73248;52.398;9.814;2024-03-29T10:44:43;13.00;99.90
30534;DHT22;73248;52.398;9.814;2024-03-29T10:47:09;13.00;99.90
30534;DHT22;73248;52.398;9.814;2024-03-29T10:49:40;13.10;99.90
30534;DHT22;73248;52.398;9.814;2024-03-29T10:52:06;13.10;99.90
30534;DHT22;73248;52.398;9.814;2024-03-29T10:54:34;13.20;99.90
30534;DHT22;73248;52.398;9.814;2024-03-29T10:57:05;13.20;99.90
30534;DHT22;73248;52.398;9.814;2024-03-29T11:00:07;13.30;99.90
30534;DHT22;73248;52.398;9.814;2024-03-29T11:05:12;13.50;99.90
30534;DHT22;73248;52.398;9.814;2024-03-29T11:07:40;13.60;99.90
30534;DHT22;73248;52.398;9.814;2024-03-29T11:10:57;13.70;99.90
30534;DHT22;73248;52.398;9.814;2024-03-29T11:13:12;13.60;99.90
30534;DHT22;73248;52.398;9.814;2024-03-29T11:15:44;13.80;99.90
30534;DHT22;73248;52.398;9.814;2024-03-29T11:18:11;14.10;99.90
30534;DHT22;73248;52.398;9.814;2024-03-29T11:20:38;14.30;99.90
30534;DHT22;73248;52.398;9.814;2024-03-29T11:23:11;14.50;99.90
30534;DHT22;73248;52.398;9.814;2024-03-29T11:25:58;14.40;99.90
30534;DHT22;73248;52.398;9.814;2024-03-29T11:28:33;14.40;99.90
30534;DHT22;73248;52.398;9.814;2024-03-29T11:31:07;14.30;99.90
30534;DHT22;73248;52.398;9.814;2024-03-29T11:38:40;14.10;99.90
30534;DHT22;73248;52.398;9.814;2024-03-29T11:43:35;14.20;99.90
30534;DHT22;73248;52.398;9.814;2024-03-29T11:46:03;14.20;99.90
30534;DHT22;73248;52.398;9.814;2024-03-29T11:48:30;14.10;99.90
30534;DHT22;73248;52.398;9.814;2024-03-29T11:50:59;14.10;99.90
30534;DHT22;73248;52.398;9.814;2024-03-29T11:53:26;14.10;99.90
30534;DHT22;73248;52.398;9.814;2024-03-29T11:55:59;14.20;99.90
30534;DHT22;73248;52.398;9.814;2024-03-29T11:58:26;14.20;99.90
30534;DHT22;73248;52.398;9.814;2024-03-29T12:00:53;14.10;99.90
30534;DHT22;73248;52.398;9.814;2024-03-29T12:03:20;14.10;99.90
30534;DHT22;73248;52.398;9.814;2024-03-29T12:05:48;14.20;99.90
30534;DHT22;73248;52.398;9.814;2024-03-29T12:08:14;14.20;99.90
30534;DHT22;73248;52.398;9.814;2024-03-29T12:10:40;14.30;99.90
30534;DHT22;73248;52.398;9.814;2024-03-29T12:13:07;14.40;99.90
30534;DHT22;73248;52.398;9.814;2024-03-29T12:15:34;14.50;99.90
30534;DHT22;73248;52.398;9.814;2024-03-29T12:18:05;14.80;99.90
30534;DHT22;73248;52.398;9.814;2024-03-29T12:20:32;15.00;99.90
30534;DHT22;73248;52.398;9.814;2024-03-29T12:23:02;15.20;99.90
30534;DHT22;73248;52.398;9.814;2024-03-29T12:25:28;15.30;99.80
30534;DHT22;73248;52.398;9.814;2024-03-29T12:27:54;15.40;99.90
30534;DHT22;73248;52.398;9.814;2024-03-29T12:30:20;15.60;99.70
30534;DHT22;73248;52.398;9.814;2024-03-29T12:32:46;15.60;99.50
30534;DHT22;73248;52.398;9.814;2024-03-29T12:35:14;15.50;99.40
30534;DHT22;73248;52.398;9.814;2024-03-29T12:37:50;15.60;99.50
30534;DHT22;73248;52.398;9.814;2024-03-29T12:40:19;15.40;99.10
30534;DHT22;73248;52.398;9.814;2024-03-29T12:42:48;15.20;99.10
30534;DHT22;73248;52.398;9.814;2024-03-29T12:45:14;15.20;99.20
30534;DHT22;73248;52.398;9.814;2024-03-29T12:47:40;15.20;99.40
30534;DHT22;73248;52.398;9.814;2024-03-29T12:50:06;15.20;99.40
30534;DHT22;73248;52.398;9.814;2024-03-29T12:52:39;15.10;99.40
30534;DHT22;73248;52.398;9.814;2024-03-29T12:55:05;15.10;99.60
30534;DHT22;73248;52.398;9.814;2024-03-29T12:57:37;15.00;99.50
30534;DHT22;73248;52.398;9.814;2024-03-29T13:00:06;14.90;99.70
30534;DHT22;73248;52.398;9.814;2024-03-29T13:02:38;14.80;99.50
30534;DHT22;73248;52.398;9.814;2024-03-29T13:05:04;14.80;99.80
30534;DHT22;73248;52.398;9.814;2024-03-29T13:07:31;14.80;99.50
30534;DHT22;73248;52.398;9.814;2024-03-29T13:09:56;14.90;99.60
30534;DHT22;73248;52.398;9.814;2024-03-29T13:12:24;14.80;99.30
30534;DHT22;73248;52.398;9.814;2024-03-29T13:14:50;14.80;99.30
30534;DHT22;73248;52.398;9.814;2024-03-29T13:17:15;14.70;99.20
30534;DHT22;73248;52.398;9.814;2024-03-29T13:19:41;14.70;99.40
30534;DHT22;73248;52.398;9.814;2024-03-29T13:22:06;14.70;99.50
30534;DHT22;73248;52.398;9.814;2024-03-29T13:24:32;14.70;99.50
30534;DHT22;73248;52.398;9.814;2024-03-29T13:26:58;14.70;99.60
30534;DHT22;73248;52.398;9.814;2024-03-29T13:29:23;14.70;99.70
30534;DHT22;73248;52.398;9.814;2024-03-29T13:31:49;14.70;99.60
30534;DHT22;73248;52.398;9.814;2024-03-29T13:34:15;14.60;99.50
30534;DHT22;73248;52.398;9.814;2024-03-29T13:36:43;14.60;99.60
30534;DHT22;73248;52.398;9.814;2024-03-29T13:39:09;14.60;99.80
30534;DHT22;73248;52.398;9.814;2024-03-29T13:41:36;14.60;99.80
30534;DHT22;73248;52.398;9.814;2024-03-29T13:44:02;14.60;99.80
30534;DHT22;73248;52.398;9.814;2024-03-29T13:46:34;14.60;99.70
30534;DHT22;73248;52.398;9.814;2024-03-29T13:49:00;14.70;99.80
30534;DHT22;73248;52.398;9.814;2024-03-29T13:51:26;14.70;99.60
30534;DHT22;73248;52.398;9.814;2024-03-29T13:53:52;14.60;99.60
30534;DHT22;73248;52.398;9.814;2024-03-29T13:56:19;14.70;99.80
30534;DHT22;73248;52.398;9.814;2024-03-29T13:58:45;14.80;99.80
30534;DHT22;73248;52.398;9.814;2024-03-29T14:01:11;15.00;99.50
30534;DHT22;73248;52.398;9.814;2024-03-29T14:03:36;15.20;99.40
30534;DHT22;73248;52.398;9.814;2024-03-29T14:06:02;15.40;99.00
30534;DHT22;73248;52.398;9.814;2024-03-29T14:08:29;15.40;98.70
30534;DHT22;73248;52.398;9.814;2024-03-29T14:10:55;15.30;98.60
30534;DHT22;73248;52.398;9.814;2024-03-29T14:13:21;15.20;98.50
30534;DHT22;73248;52.398;9.814;2024-03-29T14:15:46;15.20;98.60
30534;DHT22;73248;52.398;9.814;2024-03-29T14:18:12;15.20;98.60
30534;DHT22;73248;52.398;9.814;2024-03-29T14:20:39;15.20;98.60
30534;DHT22;73248;52.398;9.814;2024-03-29T14:23:04;15.20;98.60
30534;DHT22;73248;52.398;9.814;2024-03-29T14:25:32;15.20;98.60
30534;DHT22;73248;52.398;9.814;2024-03-29T14:27:58;15.20;98.70
30534;DHT22;73248;52.398;9.814;2024-03-29T14:30:25;15.20;98.60
30534;DHT22;73248;52.398;9.814;2024-03-29T14:32:51;15.30;98.60
30534;DHT22;73248;52.398;9.814;2024-03-29T14:35:17;15.20;98.40
30534;DHT22;73248;52.398;9.814;2024-03-29T14:37:46;15.30;98.40
30534;DHT22;73248;52.398;9.814;2024-03-29T14:40:12;15.40;98.30
30534;DHT22;73248;52.398;9.814;2024-03-29T14:42:40;15.60;98.80
30534;DHT22;73248;52.398;9.814;2024-03-29T14:45:06;15.80;98.30
30534;DHT22;73248;52.398;9.814;2024-03-29T14:47:33;15.80;98.00
30534;DHT22;73248;52.398;9.814;2024-03-29T14:50:01;15.90;98.10
30534;DHT22;73248;52.398;9.814;2024-03-29T14:52:30;16.10;97.60
30534;DHT22;73248;52.398;9.814;2024-03-29T14:54:56;16.20;97.70
30534;DHT22;73248;52.398;9.814;2024-03-29T14:57:22;16.20;97.40
30534;DHT22;73248;52.398;9.814;2024-03-29T14:59:48;16.20;96.90
30534;DHT22;73248;52.398;9.814;2024-03-29T15:02:14;15.90;97.00
30534;DHT22;73248;52.398;9.814;2024-03-29T15:04:40;16.00;97.30
30534;DHT22;73248;52.398;9.814;2024-03-29T15:07:05;16.00;97.10
30534;DHT22;73248;52.398;9.814;2024-03-29T15:09:32;16.10;97.20
30534;DHT22;73248;52.398;9.814;2024-03-29T15:11:57;16.10;97.00
30534;DHT22;73248;52.398;9.814;2024-03-29T15:14:23;16.10;96.80
30534;DHT22;73248;52.398;9.814;2024-03-29T15:16:49;16.20;96.90
30534;DHT22;73248;52.398;9.814;2024-03-29T15:19:15;16.10;97.00
30534;DHT22;73248;52.398;9.814;2024-03-29T15:21:40;16.00;97.10
30534;DHT22;73248;52.398;9.814;2024-03-29T15:24:08;16.10;97.20
30534;DHT22;73248;52.398;9.814;2024-03-29T15:26:34;16.10;97.20
30534;DHT22;73248;52.398;9.814;2024-03-29T15:29:02;16.20;97.00
30534;DHT22;73248;52.398;9.814;2024-03-29T15:31:37;16.00;97.00
30534;DHT22;73248;52.398;9.814;2024-03-29T15:34:03;16.10;97.20
30534;DHT22;73248;52.398;9.814;2024-03-29T15:36:29;16.00;97.40
30534;DHT22;73248;52.398;9.814;2024-03-29T15:38:55;16.10;97.30
30534;DHT22;73248;52.398;9.814;2024-03-29T15:41:29;16.10;97.20
30534;DHT22;73248;52.398;9.814;2024-03-29T15:43:55;16.10;97.10
30534;DHT22;73248;52.398;9.814;2024-03-29T15:46:23;16.10;97.00
30534;DHT22;73248;52.398;9.814;2024-03-29T15:48:48;16.10;97.00